Time;durP1;ratioP1;P1;durP2;ratioP2;P2;SDS_P1;SDS_P2;PMS_P1;PMS_P2;Temp;Humidity;BMP_temperature;BMP_pressure;BME280_temperature;BME280_humidity;BME280_pressure;Samples;Min_cycle;Max_cycle;Signal;HPM_P1;HPM_P2
2022/06/30 00:00:26;;;;;;;6.35;3.63;;;19.90;99.90;;;;;;5037312;28;20405;-73
2022/06/30 00:02:52;;;;;;;9.25;3.55;;;19.80;99.90;;;;;;5038133;28;20049;-71
2022/06/30 00:05:18;;;;;;;10.13;5.03;;;19.80;99.90;;;;;;5036345;28;20171;-68
2022/06/30 00:07:43;;;;;;;5.80;3.72;;;19.90;99.90;;;;;;5037533;28;20120;-71
2022/06/30 00:10:11;;;;;;;8.60;3.90;;;19.80;99.90;;;;;;5037655;28;20032;-72
2022/06/30 00:12:38;;;;;;;7.80;4.18;;;19.80;99.90;;;;;;5021749;28;20413;-72
2022/06/30 00:15:04;;;;;;;10.30;4.70;;;19.80;99.90;;;;;;5022117;28;20022;-70
2022/06/30 00:17:30;;;;;;;9.45;4.38;;;19.80;99.90;;;;;;5038458;28;20033;-73
2022/06/30 00:19:55;;;;;;;7.80;4.72;;;19.80;99.90;;;;;;5035742;28;20029;-72
2022/06/30 00:22:21;;;;;;;9.50;5.70;;;19.80;99.90;;;;;;5038254;28;20043;-71
2022/06/30 00:24:47;;;;;;;10.00;4.70;;;19.80;99.90;;;;;;5038907;28;20044;-72
2022/06/30 00:27:12;;;;;;;8.10;4.60;;;19.80;99.90;;;;;;5038769;28;20493;-72
2022/06/30 00:29:38;;;;;;;9.15;4.72;;;19.80;99.90;;;;;;5019922;28;20048;-73
2022/06/30 00:32:05;;;;;;;8.38;5.03;;;19.70;99.90;;;;;;5036073;28;20022;-70
2022/06/30 00:34:30;;;;;;;7.30;5.05;;;19.70;99.90;;;;;;5038381;28;20044;-71
2022/06/30 00:36:56;;;;;;;9.10;5.28;;;19.80;99.90;;;;;;5017646;28;20405;-72
2022/06/30 00:39:22;;;;;;;12.93;5.40;;;19.80;99.90;;;;;;5038795;28;20029;-71
2022/06/30 00:41:48;;;;;;;8.60;4.80;;;19.80;99.90;;;;;;5037224;28;20037;-72
2022/06/30 00:44:13;;;;;;;9.20;4.57;;;19.80;99.90;;;;;;5023674;28;20037;-71
2022/06/30 00:46:39;;;;;;;6.43;4.88;;;19.70;99.90;;;;;;5022911;28;20083;-71
2022/06/30 00:49:06;;;;;;;7.78;4.78;;;19.70;99.90;;;;;;5040668;28;20033;-71
2022/06/30 00:51:32;;;;;;;9.50;5.30;;;19.70;99.90;;;;;;5043647;28;20442;-73
2022/06/30 00:54:01;;;;;;;9.93;5.35;;;19.70;99.90;;;;;;5042672;28;20120;-72
2022/06/30 00:56:27;;;;;;;7.70;5.05;;;19.60;99.90;;;;;;5040080;28;20034;-73
2022/06/30 00:58:55;;;;;;;8.57;5.10;;;19.50;99.90;;;;;;5043850;28;20107;-71
2022/06/30 01:01:21;;;;;;;11.88;4.82;;;19.50;99.90;;;;;;5043773;28;20037;-71
2022/06/30 01:03:47;;;;;;;11.13;4.75;;;19.40;99.90;;;;;;5039591;28;20401;-71
2022/06/30 01:06:13;;;;;;;10.23;4.47;;;19.40;99.90;;;;;;5023486;28;20034;-70
2022/06/30 01:08:40;;;;;;;6.95;4.43;;;19.40;99.90;;;;;;5040620;28;20420;-73
2022/06/30 01:13:49;;;;;;;6.35;3.67;;;19.40;99.90;;;;;;5040596;28;20121;-70
2022/06/30 01:16:16;;;;;;;8.63;5.10;;;19.40;99.90;;;;;;5042239;28;20128;-72
2022/06/30 01:18:42;;;;;;;10.88;4.20;;;19.30;99.90;;;;;;5040084;28;20057;-72
2022/06/30 01:21:07;;;;;;;7.05;4.35;;;19.40;99.90;;;;;;5040281;28;20122;-72
2022/06/30 01:23:33;;;;;;;10.73;4.25;;;19.40;99.90;;;;;;5040595;28;20047;-70
2022/06/30 01:25:58;;;;;;;10.65;3.53;;;19.40;99.90;;;;;;5042079;28;20037;-72
2022/06/30 01:28:24;;;;;;;7.47;4.20;;;19.50;99.90;;;;;;5041582;28;20394;-72
2022/06/30 01:30:50;;;;;;;10.30;4.20;;;19.60;99.90;;;;;;5034499;28;20037;-70
2022/06/30 01:33:15;;;;;;;7.35;4.68;;;19.70;99.90;;;;;;5040841;28;20386;-72
2022/06/30 01:35:41;;;;;;;9.05;3.67;;;19.70;99.90;;;;;;5039566;28;20083;-73
2022/06/30 01:38:06;;;;;;;7.90;4.18;;;19.70;99.90;;;;;;5039527;28;20472;-73
2022/06/30 01:40:35;;;;;;;6.53;3.55;;;19.80;99.90;;;;;;5034975;28;20037;-71
2022/06/30 01:43:02;;;;;;;10.35;4.47;;;19.80;99.90;;;;;;5016764;28;20036;-72
2022/06/30 01:45:29;;;;;;;12.88;4.70;;;19.80;99.90;;;;;;5041288;28;20036;-72
2022/06/30 01:47:55;;;;;;;5.95;3.83;;;19.80;99.90;;;;;;5038558;28;20044;-70
2022/06/30 01:50:25;;;;;;;7.95;3.58;;;19.80;99.90;;;;;;5041980;28;20404;-70
2022/06/30 01:52:51;;;;;;;8.33;4.60;;;19.80;99.90;;;;;;5033534;28;20037;-69
2022/06/30 01:55:16;;;;;;;11.18;4.57;;;19.80;99.90;;;;;;5040909;28;20477;-72
2022/06/30 01:57:42;;;;;;;9.82;4.75;;;19.80;99.90;;;;;;5038938;28;20112;-72
2022/06/30 02:00:15;;;;;;;7.85;4.68;;;19.80;99.90;;;;;;5040517;28;20026;-70
2022/06/30 02:02:41;;;;;;;7.47;4.45;;;19.80;99.90;;;;;;5038907;28;20061;-71
2022/06/30 02:05:07;;;;;;;5.88;3.78;;;19.80;99.90;;;;;;5040341;28;20064;-71
2022/06/30 02:07:36;;;;;;;11.90;4.47;;;19.70;99.90;;;;;;5040440;28;20087;-71
2022/06/30 02:10:14;;;;;;;6.97;4.75;;;19.70;99.90;;;;;;5048175;28;20037;-71
2022/06/30 02:12:47;;;;;;;7.65;4.28;;;19.70;99.90;;;;;;5043534;28;20033;-69
2022/06/30 02:15:19;;;;;;;8.00;4.68;;;19.60;99.90;;;;;;5050637;28;20079;-72
2022/06/30 02:17:46;;;;;;;8.95;4.78;;;19.60;99.90;;;;;;5038757;28;20125;-71
2022/06/30 02:20:13;;;;;;;7.75;4.72;;;19.50;99.90;;;;;;5040818;28;20035;-70
2022/06/30 02:22:40;;;;;;;9.18;4.93;;;19.50;99.90;;;;;;5020842;28;20044;-72
2022/06/30 02:25:08;;;;;;;7.10;4.38;;;19.40;99.90;;;;;;5041662;28;20068;-69
2022/06/30 02:27:34;;;;;;;8.38;4.38;;;19.40;99.90;;;;;;5038510;28;20040;-71
2022/06/30 02:29:59;;;;;;;10.60;4.72;;;19.30;99.90;;;;;;5039012;28;20030;-73
2022/06/30 02:32:25;;;;;;;9.80;5.03;;;19.20;99.90;;;;;;5039923;28;20037;-70
2022/06/30 02:34:52;;;;;;;6.72;4.47;;;19.20;99.90;;;;;;5037124;28;20040;-69
2022/06/30 02:37:18;;;;;;;10.73;5.25;;;19.30;99.90;;;;;;5041155;28;20130;-72
2022/06/30 02:39:44;;;;;;;13.18;4.82;;;19.30;99.90;;;;;;5038036;28;20029;-74
2022/06/30 02:42:10;;;;;;;12.95;5.43;;;19.30;99.90;;;;;;5040195;28;20040;-71
2022/06/30 02:44:36;;;;;;;8.18;4.35;;;19.30;99.90;;;;;;5019666;28;20036;-72
2022/06/30 02:47:02;;;;;;;10.68;5.07;;;19.30;99.90;;;;;;5021684;28;20120;-72
2022/06/30 02:49:28;;;;;;;12.57;4.63;;;19.20;99.90;;;;;;5041064;28;20033;-71
2022/06/30 02:51:54;;;;;;;9.82;5.13;;;19.20;99.90;;;;;;5047851;28;20033;-70
2022/06/30 02:54:19;;;;;;;11.02;4.95;;;19.20;99.90;;;;;;5022459;28;20038;-71
2022/06/30 02:56:47;;;;;;;9.38;5.03;;;19.10;99.90;;;;;;5026856;28;20501;-72
2022/06/30 02:59:13;;;;;;;9.77;5.53;;;19.10;99.90;;;;;;5022190;28;20037;-70
2022/06/30 03:01:38;;;;;;;9.77;5.25;;;19.10;99.90;;;;;;5040309;28;20124;-71
2022/06/30 03:04:04;;;;;;;10.43;5.20;;;19.00;99.90;;;;;;5020017;28;20485;-70
2022/06/30 03:06:31;;;;;;;8.48;5.20;;;18.90;99.90;;;;;;5021335;28;20033;-71
2022/06/30 03:08:57;;;;;;;11.50;5.35;;;18.90;99.90;;;;;;5039726;28;20053;-71
2022/06/30 03:11:23;;;;;;;9.80;5.72;;;18.80;99.90;;;;;;5037859;28;20045;-71
2022/06/30 03:13:49;;;;;;;10.10;6.18;;;18.80;99.90;;;;;;5039972;28;20045;-72
2022/06/30 03:16:15;;;;;;;8.85;5.63;;;18.80;99.90;;;;;;5040598;28;20037;-72
2022/06/30 03:18:41;;;;;;;12.38;5.72;;;18.80;99.90;;;;;;5040030;28;20078;-72
2022/06/30 03:21:07;;;;;;;11.25;6.65;;;18.70;99.90;;;;;;5037777;28;20028;-70
2022/06/30 03:23:33;;;;;;;12.63;6.30;;;18.60;99.90;;;;;;5021038;28;20644;-71
2022/06/30 03:25:59;;;;;;;9.38;5.75;;;18.60;99.90;;;;;;5040564;28;20599;-70
2022/06/30 03:28:25;;;;;;;8.57;5.40;;;18.50;99.90;;;;;;5038070;28;20045;-72
2022/06/30 03:30:51;;;;;;;11.38;6.18;;;18.50;99.90;;;;;;5037541;28;20038;-72
2022/06/30 03:33:17;;;;;;;9.77;6.18;;;18.40;99.90;;;;;;5039856;28;20029;-73
2022/06/30 03:35:44;;;;;;;11.23;6.72;;;18.40;99.90;;;;;;5036629;28;20540;-70
2022/06/30 03:38:10;;;;;;;12.70;5.93;;;18.40;99.90;;;;;;5040060;28;20029;-72
2022/06/30 03:40:35;;;;;;;14.27;7.05;;;18.30;99.90;;;;;;5044865;28;20043;-71
2022/06/30 03:43:01;;;;;;;10.18;5.97;;;18.30;99.90;;;;;;5049406;28;20041;-72
2022/06/30 03:45:28;;;;;;;12.02;5.97;;;18.30;99.90;;;;;;5049214;28;20558;-73
2022/06/30 03:47:54;;;;;;;10.80;6.45;;;18.20;99.90;;;;;;5020887;28;20080;-69
2022/06/30 03:50:20;;;;;;;10.48;6.22;;;18.20;99.90;;;;;;5040196;28;20569;-70
2022/06/30 03:52:45;;;;;;;9.85;5.63;;;18.10;99.90;;;;;;5036390;28;20036;-70
2022/06/30 03:55:12;;;;;;;9.40;5.63;;;18.10;99.90;;;;;;5040026;28;20507;-72
2022/06/30 03:57:37;;;;;;;13.48;7.63;;;18.10;99.90;;;;;;5036844;28;20053;-72
2022/06/30 04:00:05;;;;;;;11.23;6.88;;;18.10;99.90;;;;;;5020934;28;20049;-70
2022/06/30 04:02:31;;;;;;;8.55;5.90;;;18.10;99.90;;;;;;5035873;28;20512;-71
2022/06/30 04:04:57;;;;;;;10.60;6.68;;;18.10;99.90;;;;;;5038447;28;20098;-72
2022/06/30 04:07:22;;;;;;;10.82;6.57;;;18.10;99.90;;;;;;5037013;28;20492;-70
2022/06/30 04:09:48;;;;;;;9.27;5.72;;;18.10;99.90;;;;;;5022492;28;20039;-72
2022/06/30 04:12:14;;;;;;;15.75;7.30;;;18.00;99.90;;;;;;5020840;28;20401;-72
2022/06/30 04:14:40;;;;;;;11.15;6.70;;;18.10;99.90;;;;;;5020005;28;20112;-71
2022/06/30 04:17:05;;;;;;;15.38;6.38;;;18.10;99.90;;;;;;5020820;28;20509;-73
2022/06/30 04:19:31;;;;;;;13.73;6.85;;;18.10;99.90;;;;;;5025369;28;20482;-70
2022/06/30 04:21:57;;;;;;;10.95;6.15;;;18.10;99.90;;;;;;5042509;28;20497;-71
2022/06/30 04:24:23;;;;;;;9.25;5.93;;;18.10;99.90;;;;;;5041119;28;20030;-73
2022/06/30 04:26:48;;;;;;;11.13;6.00;;;18.00;99.90;;;;;;5024068;28;20064;-71
2022/06/30 04:29:14;;;;;;;8.93;6.40;;;18.00;99.90;;;;;;5040233;28;20494;-71
2022/06/30 04:34:24;;;;;;;11.65;6.45;;;18.10;99.90;;;;;;5038950;28;20071;-71
2022/06/30 04:36:49;;;;;;;12.77;6.88;;;18.00;99.90;;;;;;5042357;28;20053;-71
2022/06/30 04:39:15;;;;;;;15.15;7.07;;;18.10;99.90;;;;;;5040244;28;20037;-72
2022/06/30 04:41:41;;;;;;;9.75;6.10;;;18.10;99.90;;;;;;5029399;28;20489;-71
2022/06/30 04:44:07;;;;;;;15.55;6.45;;;18.10;99.90;;;;;;5022574;28;20034;-72
2022/06/30 04:46:33;;;;;;;11.13;6.57;;;18.10;99.90;;;;;;5052521;28;20042;-70
2022/06/30 04:48:59;;;;;;;10.60;7.22;;;18.20;99.90;;;;;;5036032;28;20090;-72
2022/06/30 04:51:26;;;;;;;13.23;7.22;;;18.20;99.90;;;;;;5050195;28;20033;-71
2022/06/30 04:53:52;;;;;;;10.82;6.90;;;18.20;99.90;;;;;;5041303;28;20124;-73
2022/06/30 04:56:18;;;;;;;11.85;6.60;;;18.30;99.90;;;;;;5045169;28;20025;-70
2022/06/30 04:58:45;;;;;;;15.40;7.35;;;18.30;99.90;;;;;;5041336;28;20040;-72
2022/06/30 05:01:11;;;;;;;11.32;6.35;;;18.30;99.90;;;;;;5040046;28;20397;-69
2022/06/30 05:03:37;;;;;;;11.13;6.70;;;18.40;99.90;;;;;;5025049;28;20036;-72
2022/06/30 05:06:04;;;;;;;11.40;7.18;;;18.40;99.90;;;;;;5040706;28;20578;-71
2022/06/30 05:08:30;;;;;;;12.23;6.45;;;18.40;99.90;;;;;;5042727;28;20038;-72
2022/06/30 05:10:56;;;;;;;15.05;8.18;;;18.50;99.90;;;;;;5043437;28;20104;-69
2022/06/30 05:13:22;;;;;;;12.27;8.18;;;18.60;99.90;;;;;;5047373;28;20029;-73
2022/06/30 05:15:47;;;;;;;14.63;8.57;;;18.60;99.90;;;;;;5049651;28;20120;-72
2022/06/30 05:18:13;;;;;;;17.55;8.18;;;18.70;99.90;;;;;;5023311;28;20030;-71
2022/06/30 05:20:40;;;;;;;16.98;8.93;;;18.70;99.90;;;;;;5042663;28;20029;-72
2022/06/30 05:23:06;;;;;;;11.88;7.88;;;18.80;99.90;;;;;;5021321;28;20033;-72
2022/06/30 05:28:17;;;;;;;15.65;8.55;;;18.80;99.90;;;;;;5030929;28;20127;-72
2022/06/30 05:30:43;;;;;;;12.88;7.60;;;18.80;99.90;;;;;;5037158;28;20039;-71
2022/06/30 05:33:09;;;;;;;12.55;7.75;;;18.90;99.90;;;;;;5041304;28;20033;-73
2022/06/30 05:35:35;;;;;;;12.70;7.53;;;18.90;99.90;;;;;;5020660;28;20033;-69
2022/06/30 05:38:00;;;;;;;15.50;8.48;;;19.00;99.90;;;;;;5041966;28;20045;-73
2022/06/30 05:40:27;;;;;;;15.30;8.45;;;19.00;99.90;;;;;;5039451;28;20486;-69
2022/06/30 05:42:53;;;;;;;17.73;8.32;;;19.10;99.90;;;;;;5038874;28;20044;-73
2022/06/30 05:45:18;;;;;;;14.70;8.02;;;19.20;99.90;;;;;;5022064;28;20044;-72
2022/06/30 05:47:45;;;;;;;13.40;7.88;;;19.30;99.90;;;;;;5021116;28;20030;-73
2022/06/30 05:50:12;;;;;;;14.55;7.32;;;19.60;99.90;;;;;;5023691;28;20033;-69
2022/06/30 05:52:37;;;;;;;12.43;6.93;;;19.70;99.90;;;;;;5038017;28;20057;-71
2022/06/30 05:55:03;;;;;;;12.82;6.53;;;20.10;99.90;;;;;;5041816;28;20056;-72
2022/06/30 05:57:29;;;;;;;11.45;5.70;;;20.50;99.90;;;;;;5021161;28;20128;-72
2022/06/30 05:59:54;;;;;;;6.60;4.00;;;20.90;99.90;;;;;;5042002;28;20393;-72
2022/06/30 06:02:20;;;;;;;8.15;4.13;;;21.30;99.90;;;;;;5039607;28;20037;-71
2022/06/30 06:04:45;;;;;;;12.68;3.38;;;21.70;99.90;;;;;;5021203;28;20032;-73
2022/06/30 06:07:11;;;;;;;8.75;2.15;;;21.90;99.90;;;;;;5041133;28;20021;-72
2022/06/30 06:09:36;;;;;;;6.45;2.20;;;22.10;99.90;;;;;;5020263;28;20048;-71
2022/06/30 06:12:02;;;;;;;4.45;1.50;;;22.20;99.90;;;;;;5041525;28;20442;-73
2022/06/30 06:14:28;;;;;;;4.53;1.35;;;22.20;99.90;;;;;;5040594;28;20124;-72
2022/06/30 06:16:53;;;;;;;4.80;1.33;;;22.20;99.90;;;;;;5021387;28;20032;-73
2022/06/30 06:19:19;;;;;;;3.58;2.00;;;22.20;99.90;;;;;;5039494;28;20033;-72
2022/06/30 06:21:45;;;;;;;4.45;1.33;;;22.10;99.90;;;;;;5039997;28;20067;-72
2022/06/30 06:24:10;;;;;;;6.53;2.17;;;22.10;99.90;;;;;;5037577;28;20392;-73
2022/06/30 06:26:36;;;;;;;4.45;1.85;;;22.10;99.90;;;;;;5023396;28;20026;-71
2022/06/30 06:29:08;;;;;;;5.50;1.63;;;21.90;99.90;;;;;;5041473;28;20136;-73
2022/06/30 06:31:39;;;;;;;6.05;1.83;;;21.90;99.90;;;;;;5033943;28;20032;-72
2022/06/30 06:34:07;;;;;;;3.80;1.60;;;21.90;99.90;;;;;;5033156;28;20029;-73
2022/06/30 06:36:33;;;;;;;4.50;2.33;;;21.90;99.90;;;;;;5033937;28;20794;-72
2022/06/30 06:38:59;;;;;;;5.18;1.75;;;21.90;99.90;;;;;;5040507;28;20025;-71
2022/06/30 06:41:25;;;;;;;2.88;1.52;;;22.00;99.90;;;;;;5020320;28;20047;-73
2022/06/30 06:43:52;;;;;;;5.55;2.33;;;22.10;99.90;;;;;;5038548;28;20436;-73
2022/06/30 06:46:18;;;;;;;2.88;1.88;;;22.20;99.90;;;;;;5022011;28;20037;-73
2022/06/30 06:48:44;;;;;;;5.00;2.08;;;22.50;99.90;;;;;;5021494;28;20048;-71
2022/06/30 06:51:10;;;;;;;4.93;1.98;;;22.70;99.90;;;;;;5040284;28;20120;-72
2022/06/30 06:53:37;;;;;;;5.03;2.10;;;22.90;99.90;;;;;;5025329;28;20041;-71
2022/06/30 06:56:03;;;;;;;6.05;1.95;;;22.90;99.90;;;;;;5034052;28;20036;-72
2022/06/30 06:58:29;;;;;;;6.13;2.00;;;23.10;99.90;;;;;;5019826;28;21020;-70
2022/06/30 07:00:55;;;;;;;5.32;1.98;;;23.10;99.90;;;;;;5037448;28;20566;-72
2022/06/30 07:03:21;;;;;;;3.50;1.85;;;23.20;99.90;;;;;;5019278;28;20047;-73
2022/06/30 07:05:47;;;;;;;4.55;1.80;;;23.40;99.90;;;;;;5021175;28;20064;-73
2022/06/30 07:08:12;;;;;;;5.38;2.08;;;23.60;99.90;;;;;;5022368;28;20144;-71
2022/06/30 07:10:38;;;;;;;3.88;2.00;;;24.20;99.90;;;;;;5019647;28;20467;-73
2022/06/30 07:13:04;;;;;;;4.95;2.20;;;24.20;99.90;;;;;;5023164;28;20072;-71
2022/06/30 07:15:29;;;;;;;4.13;1.35;;;24.40;99.90;;;;;;5023245;28;20044;-71
2022/06/30 07:17:55;;;;;;;3.63;1.45;;;24.80;99.90;;;;;;5021726;28;20041;-73
2022/06/30 07:20:21;;;;;;;3.85;1.75;;;25.20;99.90;;;;;;5019978;28;20183;-71
2022/06/30 07:22:47;;;;;;;2.85;1.05;;;25.30;99.90;;;;;;5038171;28;20041;-73
2022/06/30 07:25:13;;;;;;;4.57;1.23;;;25.10;99.90;;;;;;5039702;28;20777;-70
2022/06/30 07:27:39;;;;;;;5.13;1.48;;;24.80;99.90;;;;;;5021341;28;20037;-70
2022/06/30 07:30:06;;;;;;;4.85;1.30;;;25.40;99.90;;;;;;5019021;28;20393;-70
2022/06/30 07:32:31;;;;;;;3.92;1.48;;;26.50;99.90;;;;;;5040224;28;20508;-73
2022/06/30 07:34:57;;;;;;;4.60;1.60;;;27.60;99.90;;;;;;5036724;28;20025;-71
2022/06/30 07:37:23;;;;;;;5.65;1.23;;;28.80;99.60;;;;;;5039320;28;20112;-73
2022/06/30 07:39:48;;;;;;;4.43;1.38;;;29.80;96.60;;;;;;5037877;28;20091;-72
2022/06/30 07:42:14;;;;;;;4.10;1.30;;;30.80;95.10;;;;;;5038171;28;20116;-70
2022/06/30 07:44:40;;;;;;;4.32;1.02;;;31.10;95.00;;;;;;5020263;28;20416;-72
2022/06/30 07:47:06;;;;;;;6.50;1.88;;;32.00;93.40;;;;;;5018673;28;20029;-72
2022/06/30 07:49:32;;;;;;;10.20;2.50;;;32.50;91.70;;;;;;5022474;28;20083;-71
2022/06/30 07:51:57;;;;;;;3.75;1.45;;;33.00;90.30;;;;;;5037653;28;20025;-73
2022/06/30 07:54:23;;;;;;;4.18;1.40;;;33.10;88.20;;;;;;5018244;28;20413;-72
2022/06/30 07:56:48;;;;;;;6.35;1.42;;;33.30;88.60;;;;;;5038508;28;20555;-72
2022/06/30 07:59:14;;;;;;;5.82;1.60;;;33.60;85.80;;;;;;5038006;28;20471;-71
2022/06/30 08:01:40;;;;;;;6.07;1.95;;;33.40;82.80;;;;;;5037188;28;20049;-71
2022/06/30 08:04:06;;;;;;;5.35;1.88;;;33.60;82.70;;;;;;5021038;28;20044;-73
2022/06/30 08:06:31;;;;;;;3.65;1.75;;;33.60;81.50;;;;;;5036709;28;20068;-73
2022/06/30 08:08:57;;;;;;;7.13;2.55;;;33.20;82.40;;;;;;5039279;28;20112;-71
2022/06/30 08:11:23;;;;;;;9.23;2.22;;;33.10;82.20;;;;;;5036844;28;20771;-74
2022/06/30 08:13:49;;;;;;;4.70;2.22;;;32.80;80.30;;;;;;5037903;28;20040;-71
2022/06/30 08:16:15;;;;;;;7.85;2.00;;;32.30;80.50;;;;;;5039327;28;20044;-70
2022/06/30 08:18:42;;;;;;;7.53;1.92;;;32.00;81.00;;;;;;5038099;28;20121;-73
2022/06/30 08:21:09;;;;;;;7.35;1.73;;;31.80;80.50;;;;;;5019082;28;20125;-73
2022/06/30 08:23:37;;;;;;;3.67;1.50;;;31.30;82.30;;;;;;5038584;28;20579;-73
2022/06/30 08:26:03;;;;;;;5.95;1.20;;;30.90;81.20;;;;;;5039760;28;20030;-72
2022/06/30 08:28:31;;;;;;;13.70;2.17;;;30.20;83.20;;;;;;5038105;28;20131;-70
2022/06/30 08:30:57;;;;;;;4.93;1.88;;;29.50;84.00;;;;;;5014084;28;20612;-71
2022/06/30 08:33:23;;;;;;;4.28;0.93;;;28.90;85.90;;;;;;5020889;28;20124;-71
2022/06/30 08:35:48;;;;;;;6.90;0.88;;;28.50;87.00;;;;;;5036471;28;20398;-73
2022/06/30 08:38:14;;;;;;;5.93;1.42;;;28.20;87.40;;;;;;5037574;28;20057;-70
2022/06/30 08:43:28;;;;;;;3.35;0.90;;;27.60;90.40;;;;;;5031786;28;20052;-73
2022/06/30 08:45:55;;;;;;;5.90;1.40;;;27.30;90.30;;;;;;5021358;28;20033;-71
2022/06/30 08:48:21;;;;;;;5.90;1.77;;;27.30;90.10;;;;;;5018419;28;20053;-72
2022/06/30 08:50:51;;;;;;;6.22;1.20;;;27.00;90.40;;;;;;5020491;28;20413;-71
2022/06/30 08:53:17;;;;;;;5.10;1.10;;;26.70;90.40;;;;;;5037405;28;20119;-70
2022/06/30 08:55:45;;;;;;;3.50;1.00;;;26.60;91.20;;;;;;5020951;28;20127;-73
2022/06/30 08:58:11;;;;;;;3.15;0.77;;;26.50;91.80;;;;;;5026700;28;20753;-73
2022/06/30 09:00:38;;;;;;;4.25;0.95;;;26.40;91.10;;;;;;5023659;28;20040;-70
2022/06/30 09:03:04;;;;;;;4.32;0.80;;;26.30;91.70;;;;;;5041596;28;20122;-70
2022/06/30 09:05:31;;;;;;;7.40;1.55;;;26.40;92.00;;;;;;5045472;28;20090;-73
2022/06/30 09:07:57;;;;;;;4.45;1.42;;;26.40;91.30;;;;;;5021783;28;20045;-72
2022/06/30 09:10:24;;;;;;;3.45;0.75;;;26.30;92.00;;;;;;5042683;28;20056;-70
2022/06/30 09:13:01;;;;;;;5.85;0.90;;;26.10;92.60;;;;;;5039342;28;20038;-71
2022/06/30 09:15:31;;;;;;;3.17;0.80;;;26.20;91.80;;;;;;5038583;28;20091;-73
2022/06/30 09:18:00;;;;;;;2.20;0.70;;;26.00;92.20;;;;;;5018325;28;20091;-72
2022/06/30 09:20:34;;;;;;;2.85;0.98;;;25.90;92.00;;;;;;5034039;28;20056;-70
2022/06/30 09:22:59;;;;;;;2.55;0.60;;;26.00;93.30;;;;;;5036151;28;20034;-71
2022/06/30 09:25:30;;;;;;;5.78;1.73;;;26.10;93.30;;;;;;5039467;28;20035;-72
2022/06/30 09:27:56;;;;;;;3.17;0.70;;;26.30;93.10;;;;;;5009421;28;20061;-73
2022/06/30 09:30:24;;;;;;;3.50;0.88;;;26.20;92.30;;;;;;5042406;28;20057;-73
2022/06/30 09:32:57;;;;;;;3.72;1.00;;;26.20;92.50;;;;;;5021048;28;20044;-72
2022/06/30 09:35:26;;;;;;;4.88;1.05;;;26.00;92.10;;;;;;5033462;28;20140;-73
2022/06/30 09:38:09;;;;;;;3.67;0.52;;;26.00;92.30;;;;;;5042290;28;20528;-72
2022/06/30 09:43:37;;;;;;;5.55;1.17;;;26.00;92.60;;;;;;5033782;28;20036;-73
2022/06/30 09:46:04;;;;;;;1.85;0.68;;;26.10;92.90;;;;;;5037091;28;20029;-71
2022/06/30 09:48:32;;;;;;;5.82;0.73;;;26.20;92.60;;;;;;5041675;28;20214;-72
2022/06/30 09:51:00;;;;;;;2.20;0.68;;;26.20;92.80;;;;;;5021216;28;20026;-70
2022/06/30 09:53:26;;;;;;;7.32;1.13;;;26.20;92.50;;;;;;5041220;28;20086;-73
2022/06/30 09:55:51;;;;;;;2.22;0.68;;;26.20;92.50;;;;;;5038254;28;20037;-73
2022/06/30 09:58:26;;;;;;;5.00;0.70;;;26.20;91.80;;;;;;5041147;28;20033;-71
2022/06/30 10:00:51;;;;;;;3.58;0.70;;;26.20;92.70;;;;;;5034604;28;20041;-73
2022/06/30 10:03:19;;;;;;;2.22;0.60;;;26.20;92.70;;;;;;5023089;28;20456;-71
2022/06/30 10:05:50;;;;;;;2.72;0.50;;;26.10;92.20;;;;;;5038656;28;20342;-71
2022/06/30 10:08:18;;;;;;;3.17;0.68;;;26.00;92.80;;;;;;5042458;28;20044;-72
2022/06/30 10:10:44;;;;;;;3.65;0.68;;;26.20;92.90;;;;;;5040145;28;20045;-72
2022/06/30 10:13:15;;;;;;;1.08;0.40;;;26.30;92.00;;;;;;5038614;28;20068;-71
2022/06/30 10:15:44;;;;;;;1.63;0.32;;;26.40;91.80;;;;;;5039613;28;20115;-72
2022/06/30 10:18:11;;;;;;;2.42;0.85;;;26.50;92.00;;;;;;5040330;28;20083;-73
2022/06/30 10:20:38;;;;;;;2.25;0.55;;;26.60;91.90;;;;;;5039901;28;20048;-72
2022/06/30 10:23:07;;;;;;;6.50;1.05;;;26.40;90.90;;;;;;5039300;28;20128;-70
2022/06/30 10:25:33;;;;;;;8.48;0.93;;;26.30;91.40;;;;;;5043880;28;20501;-72
2022/06/30 10:27:59;;;;;;;3.60;0.80;;;26.20;92.10;;;;;;5038880;28;20735;-73
2022/06/30 10:30:39;;;;;;;3.33;0.80;;;26.00;92.20;;;;;;5040851;28;20057;-73
2022/06/30 10:33:22;;;;;;;2.55;0.75;;;26.30;92.10;;;;;;5039186;28;20038;-70
2022/06/30 10:36:05;;;;;;;7.07;0.63;;;26.50;91.60;;;;;;5019233;28;20033;-73
2022/06/30 10:38:48;;;;;;;5.75;1.00;;;26.40;92.00;;;;;;5018479;28;20037;-74
2022/06/30 10:41:15;;;;;;;1.67;0.47;;;26.40;91.40;;;;;;5020515;28;20038;-72
2022/06/30 10:44:24;;;;;;;4.07;0.40;;;26.40;92.00;;;;;;5038309;28;20037;-73
2022/06/30 10:46:51;;;;;;;7.32;1.10;;;26.70;92.60;;;;;;4952623;28;20050;-70
2022/06/30 10:49:17;;;;;;;3.05;0.77;;;26.70;91.10;;;;;;5028727;28;20033;-72
2022/06/30 10:51:44;;;;;;;4.47;0.70;;;26.70;91.90;;;;;;5037508;28;20052;-72
2022/06/30 10:54:26;;;;;;;4.28;0.98;;;26.70;92.60;;;;;;5038701;28;20505;-73
2022/06/30 10:56:51;;;;;;;4.45;0.57;;;26.60;91.80;;;;;;5033659;28;20040;-70
2022/06/30 10:59:25;;;;;;;1.02;0.30;;;26.60;94.20;;;;;;5040259;28;20041;-73
2022/06/30 11:02:11;;;;;;;3.00;0.75;;;26.80;93.00;;;;;;5033629;28;20120;-71
2022/06/30 11:04:39;;;;;;;1.77;0.43;;;26.70;91.90;;;;;;5036210;28;20037;-71
2022/06/30 11:07:11;;;;;;;1.45;0.40;;;26.60;91.70;;;;;;5020957;28;20021;-70
2022/06/30 11:09:47;;;;;;;2.92;0.50;;;26.60;92.00;;;;;;5038625;28;20041;-71
2022/06/30 11:12:18;;;;;;;2.95;0.50;;;26.60;91.70;;;;;;5037008;28;20045;-71
2022/06/30 11:14:48;;;;;;;1.17;0.43;;;26.50;91.10;;;;;;5021704;28;20128;-73
2022/06/30 11:17:20;;;;;;;8.07;1.25;;;26.30;91.40;;;;;;5033767;28;20025;-72
2022/06/30 11:19:49;;;;;;;3.33;0.43;;;26.20;91.50;;;;;;5044012;28;20410;-72
2022/06/30 11:22:16;;;;;;;5.93;1.13;;;26.10;91.60;;;;;;5018830;28;20525;-74
2022/06/30 11:24:45;;;;;;;2.45;0.80;;;26.10;92.20;;;;;;5041513;28;20040;-72
2022/06/30 11:27:25;;;;;;;4.38;0.70;;;26.20;91.70;;;;;;5049971;28;20049;-73
2022/06/30 11:30:03;;;;;;;4.03;0.80;;;26.30;91.50;;;;;;5036626;28;20037;-71
2022/06/30 11:32:29;;;;;;;4.00;0.70;;;26.20;90.80;;;;;;5040636;28;20040;-71
2022/06/30 11:34:56;;;;;;;2.83;0.77;;;26.10;91.70;;;;;;5040175;28;20030;-72
2022/06/30 11:37:23;;;;;;;5.70;0.55;;;25.90;91.60;;;;;;5039977;28;20029;-70
2022/06/30 11:40:03;;;;;;;3.08;0.63;;;25.90;91.80;;;;;;5018305;28;20041;-72
2022/06/30 11:42:29;;;;;;;;;;;25.70;92.10;;;;;;5036058;28;20042;-71
2022/06/30 11:44:54;;;;;;;9.95;1.08;;;25.40;92.20;;;;;;5020218;28;19931;-72
2022/06/30 11:47:22;;;;;;;1.65;0.50;;;25.40;92.50;;;;;;5022770;28;20032;-71
2022/06/30 11:49:55;;;;;;;4.75;0.73;;;25.30;92.40;;;;;;5018802;28;20038;-73
2022/06/30 11:52:29;;;;;;;2.88;0.63;;;25.20;92.90;;;;;;5033223;28;20056;-70
2022/06/30 11:54:59;;;;;;;2.13;0.85;;;25.20;93.20;;;;;;5038579;28;20505;-73
2022/06/30 11:57:38;;;;;;;12.63;0.65;;;25.20;93.50;;;;;;5037599;28;20033;-70
2022/06/30 12:00:07;;;;;;;2.88;0.68;;;25.40;93.40;;;;;;5019887;28;20488;-73
2022/06/30 12:02:35;;;;;;;3.35;0.70;;;25.60;93.30;;;;;;5019570;28;20049;-73
2022/06/30 12:05:02;;;;;;;1.30;0.35;;;25.60;93.20;;;;;;5019559;28;20032;-73
2022/06/30 12:07:29;;;;;;;4.68;0.88;;;25.60;93.10;;;;;;5037685;28;20033;-72
2022/06/30 12:09:56;;;;;;;3.20;0.95;;;25.70;92.70;;;;;;5038672;28;20512;-71
2022/06/30 12:12:26;;;;;;;6.15;0.65;;;25.70;92.70;;;;;;5036568;28;20030;-71
2022/06/30 12:14:58;;;;;;;3.03;0.93;;;25.60;92.80;;;;;;5020855;28;20029;-70
2022/06/30 12:17:24;;;;;;;1.70;0.60;;;25.40;92.50;;;;;;5038435;28;20489;-73
2022/06/30 12:19:51;;;;;;;1.42;0.50;;;25.20;92.90;;;;;;5036109;28;20051;-71
2022/06/30 12:22:18;;;;;;;2.20;0.60;;;25.20;93.40;;;;;;5035708;28;20113;-73
2022/06/30 12:24:46;;;;;;;2.17;0.70;;;25.10;93.60;;;;;;5020972;28;20061;-73
2022/06/30 12:27:32;;;;;;;4.32;0.90;;;25.10;93.70;;;;;;5037656;28;20040;-72
2022/06/30 12:30:13;;;;;;;3.10;0.50;;;25.20;93.80;;;;;;5035703;28;20049;-73
2022/06/30 12:32:39;;;;;;;3.05;0.57;;;25.20;93.50;;;;;;5032156;28;20432;-70
2022/06/30 12:35:08;;;;;;;3.60;0.73;;;25.00;93.50;;;;;;5036169;28;20489;-73
2022/06/30 12:37:37;;;;;;;3.37;0.93;;;25.10;93.40;;;;;;5037953;28;20032;-72
2022/06/30 12:40:09;;;;;;;2.95;0.50;;;25.20;94.00;;;;;;5024661;28;20030;-70
2022/06/30 12:42:40;;;;;;;3.10;0.70;;;25.30;94.30;;;;;;5040933;28;20228;-70
2022/06/30 12:45:06;;;;;;;4.05;0.73;;;25.30;93.70;;;;;;5041909;28;20038;-72
2022/06/30 12:47:31;;;;;;;4.32;0.60;;;25.20;93.20;;;;;;5023870;28;20033;-73
2022/06/30 12:49:59;;;;;;;2.75;0.65;;;25.20;93.60;;;;;;5041451;28;20528;-70
2022/06/30 12:52:31;;;;;;;4.15;0.68;;;25.10;93.60;;;;;;5023811;28;20033;-70
2022/06/30 12:54:58;;;;;;;4.72;1.05;;;25.00;94.10;;;;;;5041261;28;20126;-68
2022/06/30 12:57:27;;;;;;;6.00;0.98;;;24.80;94.00;;;;;;5042728;28;20612;-72
2022/06/30 12:59:55;;;;;;;1.83;0.85;;;24.70;94.20;;;;;;5042146;28;20512;-69